sensor_id;sensor_type;location;lat;lon;timestamp;P1;durP1;ratioP1;P2;durP2;ratioP2
12224;SDS011;6175;50.956;11.064;2023-07-31T00:01:57;3.85;;;2.30;;
12224;SDS011;6175;50.956;11.064;2023-07-31T00:04:24;2.97;;;1.92;;
12224;SDS011;6175;50.956;11.064;2023-07-31T00:06:51;3.38;;;1.52;;
12224;SDS011;6175;50.956;11.064;2023-07-31T00:09:20;2.30;;;1.52;;
12224;SDS011;6175;50.956;11.064;2023-07-31T00:11:47;3.35;;;1.88;;
12224;SDS011;6175;50.956;11.064;2023-07-31T00:14:14;3.92;;;1.85;;
12224;SDS011;6175;50.956;11.064;2023-07-31T00:16:41;2.55;;;1.58;;
12224;SDS011;6175;50.956;11.064;2023-07-31T00:19:08;3.28;;;1.77;;
12224;SDS011;6175;50.956;11.064;2023-07-31T00:21:35;2.58;;;1.80;;
12224;SDS011;6175;50.956;11.064;2023-07-31T00:24:03;3.35;;;1.80;;
12224;SDS011;6175;50.956;11.064;2023-07-31T00:26:31;4.15;;;2.00;;
12224;SDS011;6175;50.956;11.064;2023-07-31T00:28:59;3.63;;;2.05;;
12224;SDS011;6175;50.956;11.064;2023-07-31T00:31:26;2.47;;;1.77;;
12224;SDS011;6175;50.956;11.064;2023-07-31T00:33:53;4.25;;;1.63;;
12224;SDS011;6175;50.956;11.064;2023-07-31T00:36:20;5.28;;;2.05;;
12224;SDS011;6175;50.956;11.064;2023-07-31T00:38:47;3.28;;;2.10;;
12224;SDS011;6175;50.956;11.064;2023-07-31T00:41:15;3.75;;;1.90;;
12224;SDS011;6175;50.956;11.064;2023-07-31T00:43:44;1.95;;;1.60;;
12224;SDS011;6175;50.956;11.064;2023-07-31T00:46:11;3.30;;;1.80;;
12224;SDS011;6175;50.956;11.064;2023-07-31T00:48:38;5.35;;;2.28;;
12224;SDS011;6175;50.956;11.064;2023-07-31T00:51:06;5.13;;;2.10;;
12224;SDS011;6175;50.956;11.064;2023-07-31T00:53:34;5.93;;;2.20;;
12224;SDS011;6175;50.956;11.064;2023-07-31T00:56:01;3.47;;;1.95;;
12224;SDS011;6175;50.956;11.064;2023-07-31T00:58:28;4.50;;;2.33;;
12224;SDS011;6175;50.956;11.064;2023-07-31T01:00:57;3.72;;;1.98;;
12224;SDS011;6175;50.956;11.064;2023-07-31T01:03:24;4.25;;;2.08;;
12224;SDS011;6175;50.956;11.064;2023-07-31T01:05:53;4.22;;;1.83;;
12224;SDS011;6175;50.956;11.064;2023-07-31T01:08:24;6.28;;;2.20;;
12224;SDS011;6175;50.956;11.064;2023-07-31T01:10:57;4.13;;;2.15;;
12224;SDS011;6175;50.956;11.064;2023-07-31T01:13:27;2.85;;;1.92;;
12224;SDS011;6175;50.956;11.064;2023-07-31T01:15:56;2.67;;;1.88;;
12224;SDS011;6175;50.956;11.064;2023-07-31T01:18:23;3.05;;;1.75;;
12224;SDS011;6175;50.956;11.064;2023-07-31T01:20:57;2.50;;;1.83;;
12224;SDS011;6175;50.956;11.064;2023-07-31T01:23:35;4.82;;;2.10;;
12224;SDS011;6175;50.956;11.064;2023-07-31T01:26:06;4.32;;;1.80;;
12224;SDS011;6175;50.956;11.064;2023-07-31T01:28:37;2.95;;;1.92;;
12224;SDS011;6175;50.956;11.064;2023-07-31T01:31:13;2.95;;;1.80;;
12224;SDS011;6175;50.956;11.064;2023-07-31T01:33:42;3.78;;;2.10;;
12224;SDS011;6175;50.956;11.064;2023-07-31T01:36:09;3.30;;;1.98;;
12224;SDS011;6175;50.956;11.064;2023-07-31T01:38:37;2.92;;;2.10;;
12224;SDS011;6175;50.956;11.064;2023-07-31T01:41:05;4.00;;;2.00;;
12224;SDS011;6175;50.956;11.064;2023-07-31T01:43:33;2.95;;;1.80;;
12224;SDS011;6175;50.956;11.064;2023-07-31T01:46:00;3.85;;;2.20;;
12224;SDS011;6175;50.956;11.064;2023-07-31T01:48:27;4.75;;;2.00;;
12224;SDS011;6175;50.956;11.064;2023-07-31T01:50:54;2.20;;;1.92;;
12224;SDS011;6175;50.956;11.064;2023-07-31T01:53:21;5.15;;;2.60;;
12224;SDS011;6175;50.956;11.064;2023-07-31T01:55:49;3.70;;;2.15;;
12224;SDS011;6175;50.956;11.064;2023-07-31T01:58:17;3.83;;;2.17;;
12224;SDS011;6175;50.956;11.064;2023-07-31T02:00:45;4.90;;;2.05;;
12224;SDS011;6175;50.956;11.064;2023-07-31T02:03:12;4.70;;;2.67;;
12224;SDS011;6175;50.956;11.064;2023-07-31T02:05:43;3.60;;;2.03;;
12224;SDS011;6175;50.956;11.064;2023-07-31T02:08:11;4.82;;;2.25;;
12224;SDS011;6175;50.956;11.064;2023-07-31T02:10:38;3.38;;;2.13;;
12224;SDS011;6175;50.956;11.064;2023-07-31T02:13:05;3.72;;;2.78;;
12224;SDS011;6175;50.956;11.064;2023-07-31T02:15:34;4.15;;;2.40;;
12224;SDS011;6175;50.956;11.064;2023-07-31T02:18:01;4.75;;;2.30;;
12224;SDS011;6175;50.956;11.064;2023-07-31T02:20:28;5.38;;;2.42;;
12224;SDS011;6175;50.956;11.064;2023-07-31T02:22:55;3.83;;;2.40;;
12224;SDS011;6175;50.956;11.064;2023-07-31T02:25:23;5.03;;;2.13;;
12224;SDS011;6175;50.956;11.064;2023-07-31T02:27:50;5.55;;;2.30;;
12224;SDS011;6175;50.956;11.064;2023-07-31T02:30:17;6.40;;;2.35;;
12224;SDS011;6175;50.956;11.064;2023-07-31T02:32:45;5.38;;;2.40;;
12224;SDS011;6175;50.956;11.064;2023-07-31T02:35:13;4.95;;;2.58;;
12224;SDS011;6175;50.956;11.064;2023-07-31T02:37:40;5.45;;;2.88;;
12224;SDS011;6175;50.956;11.064;2023-07-31T02:40:08;7.50;;;2.70;;
12224;SDS011;6175;50.956;11.064;2023-07-31T02:42:35;3.33;;;2.22;;
12224;SDS011;6175;50.956;11.064;2023-07-31T02:45:02;3.53;;;2.25;;
12224;SDS011;6175;50.956;11.064;2023-07-31T02:47:29;4.13;;;2.53;;
12224;SDS011;6175;50.956;11.064;2023-07-31T02:49:58;5.25;;;2.42;;
12224;SDS011;6175;50.956;11.064;2023-07-31T02:52:25;4.88;;;2.47;;
12224;SDS011;6175;50.956;11.064;2023-07-31T02:54:52;4.93;;;2.60;;
12224;SDS011;6175;50.956;11.064;2023-07-31T02:57:19;4.40;;;2.53;;
12224;SDS011;6175;50.956;11.064;2023-07-31T02:59:47;3.78;;;2.67;;
12224;SDS011;6175;50.956;11.064;2023-07-31T03:02:14;4.28;;;2.42;;
12224;SDS011;6175;50.956;11.064;2023-07-31T03:04:41;3.08;;;2.10;;
12224;SDS011;6175;50.956;11.064;2023-07-31T03:07:10;4.40;;;2.70;;
12224;SDS011;6175;50.956;11.064;2023-07-31T03:09:37;3.97;;;2.85;;
12224;SDS011;6175;50.956;11.064;2023-07-31T03:12:04;5.18;;;2.70;;
12224;SDS011;6175;50.956;11.064;2023-07-31T03:14:32;3.35;;;2.45;;
12224;SDS011;6175;50.956;11.064;2023-07-31T03:16:59;3.35;;;2.33;;
12224;SDS011;6175;50.956;11.064;2023-07-31T03:19:26;3.08;;;2.20;;
12224;SDS011;6175;50.956;11.064;2023-07-31T03:21:54;3.70;;;2.40;;
12224;SDS011;6175;50.956;11.064;2023-07-31T03:24:22;5.40;;;2.47;;
12224;SDS011;6175;50.956;11.064;2023-07-31T03:26:50;5.35;;;2.65;;
12224;SDS011;6175;50.956;11.064;2023-07-31T03:29:17;6.50;;;2.80;;
12224;SDS011;6175;50.956;11.064;2023-07-31T03:31:44;3.90;;;2.42;;
12224;SDS011;6175;50.956;11.064;2023-07-31T03:34:11;4.18;;;2.10;;
12224;SDS011;6175;50.956;11.064;2023-07-31T03:36:38;4.38;;;2.25;;
12224;SDS011;6175;50.956;11.064;2023-07-31T03:39:05;5.47;;;2.70;;
12224;SDS011;6175;50.956;11.064;2023-07-31T03:41:34;4.20;;;2.50;;
12224;SDS011;6175;50.956;11.064;2023-07-31T03:44:01;3.20;;;2.10;;
12224;SDS011;6175;50.956;11.064;2023-07-31T03:46:29;5.03;;;2.78;;
12224;SDS011;6175;50.956;11.064;2023-07-31T03:48:56;3.03;;;2.58;;
12224;SDS011;6175;50.956;11.064;2023-07-31T03:51:23;5.50;;;2.63;;
12224;SDS011;6175;50.956;11.064;2023-07-31T03:53:50;4.65;;;2.30;;
12224;SDS011;6175;50.956;11.064;2023-07-31T03:56:17;3.92;;;2.85;;
12224;SDS011;6175;50.956;11.064;2023-07-31T03:58:46;3.45;;;2.50;;
12224;SDS011;6175;50.956;11.064;2023-07-31T04:01:13;3.80;;;2.30;;
12224;SDS011;6175;50.956;11.064;2023-07-31T04:03:40;2.25;;;1.95;;
12224;SDS011;6175;50.956;11.064;2023-07-31T04:06:07;4.82;;;2.47;;
12224;SDS011;6175;50.956;11.064;2023-07-31T04:08:35;4.40;;;2.55;;
12224;SDS011;6175;50.956;11.064;2023-07-31T04:11:02;5.38;;;2.60;;
12224;SDS011;6175;50.956;11.064;2023-07-31T04:13:29;3.85;;;2.22;;
12224;SDS011;6175;50.956;11.064;2023-07-31T04:15:58;4.00;;;2.30;;
12224;SDS011;6175;50.956;11.064;2023-07-31T04:18:25;4.18;;;2.50;;
12224;SDS011;6175;50.956;11.064;2023-07-31T04:20:52;4.85;;;2.50;;
12224;SDS011;6175;50.956;11.064;2023-07-31T04:23:20;4.22;;;2.67;;
12224;SDS011;6175;50.956;11.064;2023-07-31T04:25:47;4.50;;;2.50;;
12224;SDS011;6175;50.956;11.064;2023-07-31T04:28:14;4.68;;;2.90;;
12224;SDS011;6175;50.956;11.064;2023-07-31T04:30:41;3.90;;;2.33;;
12224;SDS011;6175;50.956;11.064;2023-07-31T04:33:10;4.32;;;2.28;;
12224;SDS011;6175;50.956;11.064;2023-07-31T04:35:37;3.33;;;2.58;;
12224;SDS011;6175;50.956;11.064;2023-07-31T04:38:04;3.83;;;2.42;;
12224;SDS011;6175;50.956;11.064;2023-07-31T04:40:31;2.50;;;2.05;;
12224;SDS011;6175;50.956;11.064;2023-07-31T04:42:58;5.38;;;2.47;;
12224;SDS011;6175;50.956;11.064;2023-07-31T04:45:26;3.03;;;2.20;;
12224;SDS011;6175;50.956;11.064;2023-07-31T04:47:53;4.70;;;2.30;;
12224;SDS011;6175;50.956;11.064;2023-07-31T04:50:21;5.05;;;2.42;;
12224;SDS011;6175;50.956;11.064;2023-07-31T04:52:49;6.97;;;2.70;;
12224;SDS011;6175;50.956;11.064;2023-07-31T04:55:16;4.85;;;2.38;;
12224;SDS011;6175;50.956;11.064;2023-07-31T04:57:43;3.22;;;2.20;;
12224;SDS011;6175;50.956;11.064;2023-07-31T05:00:11;4.25;;;2.35;;
12224;SDS011;6175;50.956;11.064;2023-07-31T05:02:38;3.85;;;2.13;;
12224;SDS011;6175;50.956;11.064;2023-07-31T05:05:05;5.70;;;3.38;;
12224;SDS011;6175;50.956;11.064;2023-07-31T05:07:34;4.38;;;2.53;;
12224;SDS011;6175;50.956;11.064;2023-07-31T05:10:02;4.10;;;2.78;;
12224;SDS011;6175;50.956;11.064;2023-07-31T05:12:29;3.22;;;2.33;;
12224;SDS011;6175;50.956;11.064;2023-07-31T05:14:56;4.97;;;2.70;;
12224;SDS011;6175;50.956;11.064;2023-07-31T05:17:23;2.55;;;2.25;;
12224;SDS011;6175;50.956;11.064;2023-07-31T05:19:50;4.35;;;2.30;;
12224;SDS011;6175;50.956;11.064;2023-07-31T05:22:17;4.60;;;2.50;;
12224;SDS011;6175;50.956;11.064;2023-07-31T05:24:46;4.22;;;2.88;;
12224;SDS011;6175;50.956;11.064;2023-07-31T05:27:13;3.83;;;2.70;;
12224;SDS011;6175;50.956;11.064;2023-07-31T05:29:43;3.50;;;2.42;;
12224;SDS011;6175;50.956;11.064;2023-07-31T05:32:10;4.47;;;2.60;;
12224;SDS011;6175;50.956;11.064;2023-07-31T05:34:38;3.42;;;2.45;;
12224;SDS011;6175;50.956;11.064;2023-07-31T05:37:05;5.15;;;2.65;;
12224;SDS011;6175;50.956;11.064;2023-07-31T05:39:32;2.92;;;2.60;;
12224;SDS011;6175;50.956;11.064;2023-07-31T05:42:01;4.47;;;2.40;;
12224;SDS011;6175;50.956;11.064;2023-07-31T05:44:28;4.32;;;2.83;;
12224;SDS011;6175;50.956;11.064;2023-07-31T05:46:55;3.22;;;2.22;;
12224;SDS011;6175;50.956;11.064;2023-07-31T05:49:22;6.07;;;2.50;;
12224;SDS011;6175;50.956;11.064;2023-07-31T05:51:49;3.38;;;2.65;;
12224;SDS011;6175;50.956;11.064;2023-07-31T05:54:17;4.95;;;2.42;;
12224;SDS011;6175;50.956;11.064;2023-07-31T05:56:44;4.68;;;2.90;;
12224;SDS011;6175;50.956;11.064;2023-07-31T05:59:12;2.90;;;2.42;;
12224;SDS011;6175;50.956;11.064;2023-07-31T06:01:40;5.68;;;2.97;;
12224;SDS011;6175;50.956;11.064;2023-07-31T06:04:07;4.55;;;2.50;;
12224;SDS011;6175;50.956;11.064;2023-07-31T06:06:34;3.00;;;2.30;;
12224;SDS011;6175;50.956;11.064;2023-07-31T06:09:01;3.70;;;2.38;;
12224;SDS011;6175;50.956;11.064;2023-07-31T06:11:29;3.85;;;2.25;;
12224;SDS011;6175;50.956;11.064;2023-07-31T06:13:56;6.80;;;2.55;;
12224;SDS011;6175;50.956;11.064;2023-07-31T06:16:26;5.28;;;3.03;;
12224;SDS011;6175;50.956;11.064;2023-07-31T06:18:53;4.68;;;2.75;;
12224;SDS011;6175;50.956;11.064;2023-07-31T06:21:20;4.70;;;2.72;;
12224;SDS011;6175;50.956;11.064;2023-07-31T06:23:47;2.97;;;2.60;;
12224;SDS011;6175;50.956;11.064;2023-07-31T06:26:14;5.40;;;2.88;;
12224;SDS011;6175;50.956;11.064;2023-07-31T06:28:41;4.30;;;2.85;;
12224;SDS011;6175;50.956;11.064;2023-07-31T06:31:09;3.92;;;2.50;;
12224;SDS011;6175;50.956;11.064;2023-07-31T06:33:38;4.38;;;2.92;;
12224;SDS011;6175;50.956;11.064;2023-07-31T06:36:05;2.42;;;2.10;;
12224;SDS011;6175;50.956;11.064;2023-07-31T06:38:32;4.20;;;2.72;;
12224;SDS011;6175;50.956;11.064;2023-07-31T06:41:00;5.18;;;2.65;;
12224;SDS011;6175;50.956;11.064;2023-07-31T06:43:27;6.47;;;2.80;;
12224;SDS011;6175;50.956;11.064;2023-07-31T06:45:54;3.42;;;2.55;;
12224;SDS011;6175;50.956;11.064;2023-07-31T06:48:21;3.45;;;2.70;;
12224;SDS011;6175;50.956;11.064;2023-07-31T06:50:50;4.95;;;2.50;;
12224;SDS011;6175;50.956;11.064;2023-07-31T06:53:17;3.55;;;2.25;;
12224;SDS011;6175;50.956;11.064;2023-07-31T06:55:44;4.40;;;3.33;;
12224;SDS011;6175;50.956;11.064;2023-07-31T06:58:13;2.97;;;2.78;;
12224;SDS011;6175;50.956;11.064;2023-07-31T07:00:40;3.25;;;2.58;;
12224;SDS011;6175;50.956;11.064;2023-07-31T07:03:07;5.05;;;2.65;;
12224;SDS011;6175;50.956;11.064;2023-07-31T07:05:34;5.53;;;3.20;;
12224;SDS011;6175;50.956;11.064;2023-07-31T07:08:03;5.30;;;2.85;;
12224;SDS011;6175;50.956;11.064;2023-07-31T07:10:30;3.13;;;2.47;;
12224;SDS011;6175;50.956;11.064;2023-07-31T07:12:58;4.70;;;3.15;;
12224;SDS011;6175;50.956;11.064;2023-07-31T07:15:25;5.47;;;2.70;;
12224;SDS011;6175;50.956;11.064;2023-07-31T07:17:52;4.82;;;2.58;;
12224;SDS011;6175;50.956;11.064;2023-07-31T07:20:19;5.25;;;2.75;;
12224;SDS011;6175;50.956;11.064;2023-07-31T07:22:47;3.85;;;2.60;;
12224;SDS011;6175;50.956;11.064;2023-07-31T07:25:16;4.65;;;2.70;;
12224;SDS011;6175;50.956;11.064;2023-07-31T07:27:43;3.72;;;2.40;;
12224;SDS011;6175;50.956;11.064;2023-07-31T07:30:10;5.55;;;2.63;;
12224;SDS011;6175;50.956;11.064;2023-07-31T07:32:39;5.07;;;2.50;;
12224;SDS011;6175;50.956;11.064;2023-07-31T07:35:06;4.28;;;2.67;;
12224;SDS011;6175;50.956;11.064;2023-07-31T07:37:34;3.30;;;2.65;;
12224;SDS011;6175;50.956;11.064;2023-07-31T07:40:01;4.80;;;2.70;;
12224;SDS011;6175;50.956;11.064;2023-07-31T07:42:30;3.63;;;2.47;;
12224;SDS011;6175;50.956;11.064;2023-07-31T07:44:57;5.20;;;2.90;;
12224;SDS011;6175;50.956;11.064;2023-07-31T07:47:24;4.60;;;2.75;;
12224;SDS011;6175;50.956;11.064;2023-07-31T07:49:52;3.42;;;2.65;;
12224;SDS011;6175;50.956;11.064;2023-07-31T07:52:19;5.25;;;2.67;;
12224;SDS011;6175;50.956;11.064;2023-07-31T07:54:46;6.32;;;2.70;;
12224;SDS011;6175;50.956;11.064;2023-07-31T07:57:14;3.90;;;2.95;;
12224;SDS011;6175;50.956;11.064;2023-07-31T07:59:43;3.38;;;2.40;;
12224;SDS011;6175;50.956;11.064;2023-07-31T08:02:10;6.78;;;2.85;;
12224;SDS011;6175;50.956;11.064;2023-07-31T08:04:37;3.53;;;2.53;;
12224;SDS011;6175;50.956;11.064;2023-07-31T08:07:04;5.13;;;2.78;;
12224;SDS011;6175;50.956;11.064;2023-07-31T08:09:31;4.28;;;3.00;;
12224;SDS011;6175;50.956;11.064;2023-07-31T08:11:58;4.50;;;2.80;;
12224;SDS011;6175;50.956;11.064;2023-07-31T08:14:28;4.07;;;2.42;;
12224;SDS011;6175;50.956;11.064;2023-07-31T08:16:57;4.50;;;2.78;;
12224;SDS011;6175;50.956;11.064;2023-07-31T08:19:24;3.83;;;2.45;;
12224;SDS011;6175;50.956;11.064;2023-07-31T08:21:51;4.15;;;2.78;;
12224;SDS011;6175;50.956;11.064;2023-07-31T08:24:18;3.70;;;2.60;;
12224;SDS011;6175;50.956;11.064;2023-07-31T08:26:46;4.00;;;2.33;;
12224;SDS011;6175;50.956;11.064;2023-07-31T08:29:13;5.70;;;2.58;;
12224;SDS011;6175;50.956;11.064;2023-07-31T08:31:40;4.90;;;2.83;;
12224;SDS011;6175;50.956;11.064;2023-07-31T08:34:09;2.80;;;2.38;;
12224;SDS011;6175;50.956;11.064;2023-07-31T08:36:36;3.25;;;2.75;;
12224;SDS011;6175;50.956;11.064;2023-07-31T08:39:03;3.85;;;2.75;;
12224;SDS011;6175;50.956;11.064;2023-07-31T08:41:30;3.92;;;2.80;;
12224;SDS011;6175;50.956;11.064;2023-07-31T08:43:57;6.15;;;3.13;;
12224;SDS011;6175;50.956;11.064;2023-07-31T08:46:25;3.88;;;2.75;;
12224;SDS011;6175;50.956;11.064;2023-07-31T08:48:53;3.75;;;2.83;;
12224;SDS011;6175;50.956;11.064;2023-07-31T08:51:25;5.45;;;2.92;;
12224;SDS011;6175;50.956;11.064;2023-07-31T08:53:52;4.30;;;2.67;;
12224;SDS011;6175;50.956;11.064;2023-07-31T08:56:19;3.15;;;2.38;;
12224;SDS011;6175;50.956;11.064;2023-07-31T08:58:47;4.57;;;2.78;;
12224;SDS011;6175;50.956;11.064;2023-07-31T09:01:15;4.00;;;2.40;;
12224;SDS011;6175;50.956;11.064;2023-07-31T09:03:43;4.35;;;2.75;;
12224;SDS011;6175;50.956;11.064;2023-07-31T09:06:10;3.30;;;2.55;;
12224;SDS011;6175;50.956;11.064;2023-07-31T09:08:41;5.07;;;3.05;;
12224;SDS011;6175;50.956;11.064;2023-07-31T09:11:08;3.95;;;2.70;;
12224;SDS011;6175;50.956;11.064;2023-07-31T09:13:36;7.05;;;2.70;;
12224;SDS011;6175;50.956;11.064;2023-07-31T09:16:05;3.03;;;2.30;;
12224;SDS011;6175;50.956;11.064;2023-07-31T09:18:32;3.47;;;2.63;;
12224;SDS011;6175;50.956;11.064;2023-07-31T09:21:06;3.40;;;2.58;;
12224;SDS011;6175;50.956;11.064;2023-07-31T09:23:41;4.68;;;2.88;;
12224;SDS011;6175;50.956;11.064;2023-07-31T09:26:09;3.55;;;2.72;;
12224;SDS011;6175;50.956;11.064;2023-07-31T09:28:36;2.85;;;2.58;;
12224;SDS011;6175;50.956;11.064;2023-07-31T09:31:03;4.15;;;3.00;;
12224;SDS011;6175;50.956;11.064;2023-07-31T09:33:30;4.18;;;2.38;;
12224;SDS011;6175;50.956;11.064;2023-07-31T09:35:58;7.05;;;3.38;;
12224;SDS011;6175;50.956;11.064;2023-07-31T09:38:26;3.60;;;2.58;;
12224;SDS011;6175;50.956;11.064;2023-07-31T09:40:55;4.38;;;3.17;;
12224;SDS011;6175;50.956;11.064;2023-07-31T09:43:22;4.40;;;2.63;;
12224;SDS011;6175;50.956;11.064;2023-07-31T09:45:54;4.18;;;2.80;;
12224;SDS011;6175;50.956;11.064;2023-07-31T09:48:23;3.28;;;2.42;;
12224;SDS011;6175;50.956;11.064;2023-07-31T09:50:53;4.43;;;2.83;;
12224;SDS011;6175;50.956;11.064;2023-07-31T09:53:22;3.75;;;2.88;;
12224;SDS011;6175;50.956;11.064;2023-07-31T09:55:56;6.65;;;3.30;;
12224;SDS011;6175;50.956;11.064;2023-07-31T09:58:25;4.28;;;3.10;;
12224;SDS011;6175;50.956;11.064;2023-07-31T10:00:55;3.50;;;2.40;;
12224;SDS011;6175;50.956;11.064;2023-07-31T10:03:24;2.92;;;2.40;;
12224;SDS011;6175;50.956;11.064;2023-07-31T10:05:52;5.03;;;3.05;;
12224;SDS011;6175;50.956;11.064;2023-07-31T10:08:20;5.28;;;3.08;;
12224;SDS011;6175;50.956;11.064;2023-07-31T10:10:48;3.05;;;2.50;;
12224;SDS011;6175;50.956;11.064;2023-07-31T10:13:17;4.85;;;2.95;;
12224;SDS011;6175;50.956;11.064;2023-07-31T10:15:47;4.38;;;2.90;;
12224;SDS011;6175;50.956;11.064;2023-07-31T10:18:14;3.78;;;2.67;;
12224;SDS011;6175;50.956;11.064;2023-07-31T10:20:43;3.60;;;2.95;;
12224;SDS011;6175;50.956;11.064;2023-07-31T10:23:10;3.90;;;2.75;;
12224;SDS011;6175;50.956;11.064;2023-07-31T10:25:38;3.45;;;2.88;;
12224;SDS011;6175;50.956;11.064;2023-07-31T10:28:06;4.57;;;2.83;;
12224;SDS011;6175;50.956;11.064;2023-07-31T10:30:36;4.28;;;2.95;;
12224;SDS011;6175;50.956;11.064;2023-07-31T10:33:05;5.07;;;2.83;;
12224;SDS011;6175;50.956;11.064;2023-07-31T10:35:33;4.93;;;3.08;;
12224;SDS011;6175;50.956;11.064;2023-07-31T10:38:08;3.42;;;2.78;;
12224;SDS011;6175;50.956;11.064;2023-07-31T10:40:36;4.55;;;3.20;;
12224;SDS011;6175;50.956;11.064;2023-07-31T10:43:04;4.15;;;3.00;;
12224;SDS011;6175;50.956;11.064;2023-07-31T10:45:34;5.05;;;2.65;;
12224;SDS011;6175;50.956;11.064;2023-07-31T10:48:04;5.85;;;3.13;;
12224;SDS011;6175;50.956;11.064;2023-07-31T10:50:32;4.25;;;3.05;;
12224;SDS011;6175;50.956;11.064;2023-07-31T10:53:03;3.47;;;2.58;;
12224;SDS011;6175;50.956;11.064;2023-07-31T10:55:33;3.28;;;2.75;;
12224;SDS011;6175;50.956;11.064;2023-07-31T10:58:07;4.68;;;3.03;;
12224;SDS011;6175;50.956;11.064;2023-07-31T11:00:36;8.50;;;3.60;;
12224;SDS011;6175;50.956;11.064;2023-07-31T11:03:05;5.38;;;3.55;;
12224;SDS011;6175;50.956;11.064;2023-07-31T11:05:40;4.93;;;3.13;;
12224;SDS011;6175;50.956;11.064;2023-07-31T11:08:11;4.25;;;3.22;;
12224;SDS011;6175;50.956;11.064;2023-07-31T11:10:39;3.83;;;3.22;;
12224;SDS011;6175;50.956;11.064;2023-07-31T11:13:06;5.00;;;3.30;;
12224;SDS011;6175;50.956;11.064;2023-07-31T11:15:33;4.53;;;3.00;;
12224;SDS011;6175;50.956;11.064;2023-07-31T11:18:00;7.10;;;3.00;;
12224;SDS011;6175;50.956;11.064;2023-07-31T11:20:32;4.38;;;3.17;;
12224;SDS011;6175;50.956;11.064;2023-07-31T11:23:00;4.03;;;2.67;;
12224;SDS011;6175;50.956;11.064;2023-07-31T11:25:28;4.28;;;2.90;;
12224;SDS011;6175;50.956;11.064;2023-07-31T11:27:56;4.45;;;3.28;;
12224;SDS011;6175;50.956;11.064;2023-07-31T11:30:23;4.50;;;3.10;;
12224;SDS011;6175;50.956;11.064;2023-07-31T11:32:50;3.33;;;2.97;;
12224;SDS011;6175;50.956;11.064;2023-07-31T11:35:17;5.43;;;2.83;;
12224;SDS011;6175;50.956;11.064;2023-07-31T11:37:46;3.42;;;2.83;;
12224;SDS011;6175;50.956;11.064;2023-07-31T11:40:14;3.92;;;2.97;;
12224;SDS011;6175;50.956;11.064;2023-07-31T11:42:41;3.60;;;2.85;;
12224;SDS011;6175;50.956;11.064;2023-07-31T11:45:09;4.68;;;3.13;;
12224;SDS011;6175;50.956;11.064;2023-07-31T11:47:37;4.78;;;3.08;;
12224;SDS011;6175;50.956;11.064;2023-07-31T11:50:04;5.55;;;3.25;;
12224;SDS011;6175;50.956;11.064;2023-07-31T11:52:34;4.57;;;3.17;;
12224;SDS011;6175;50.956;11.064;2023-07-31T11:55:04;3.90;;;2.97;;
12224;SDS011;6175;50.956;11.064;2023-07-31T11:57:32;5.40;;;3.22;;
12224;SDS011;6175;50.956;11.064;2023-07-31T12:00:00;6.22;;;3.10;;
12224;SDS011;6175;50.956;11.064;2023-07-31T12:02:27;2.92;;;2.58;;
12224;SDS011;6175;50.956;11.064;2023-07-31T12:04:54;4.53;;;3.15;;
12224;SDS011;6175;50.956;11.064;2023-07-31T12:07:21;4.50;;;2.90;;
12224;SDS011;6175;50.956;11.064;2023-07-31T12:09:51;4.53;;;3.10;;
12224;SDS011;6175;50.956;11.064;2023-07-31T12:12:20;6.00;;;3.30;;
12224;SDS011;6175;50.956;11.064;2023-07-31T12:14:48;3.50;;;3.00;;
12224;SDS011;6175;50.956;11.064;2023-07-31T12:17:16;6.10;;;3.33;;
12224;SDS011;6175;50.956;11.064;2023-07-31T12:19:43;4.10;;;2.75;;
12224;SDS011;6175;50.956;11.064;2023-07-31T12:22:11;4.82;;;2.88;;
12224;SDS011;6175;50.956;11.064;2023-07-31T12:24:39;6.82;;;3.00;;
12224;SDS011;6175;50.956;11.064;2023-07-31T12:27:09;3.72;;;2.70;;
12224;SDS011;6175;50.956;11.064;2023-07-31T12:29:38;5.28;;;2.45;;
12224;SDS011;6175;50.956;11.064;2023-07-31T12:32:18;4.15;;;2.95;;
12224;SDS011;6175;50.956;11.064;2023-07-31T12:34:45;3.90;;;2.47;;
12224;SDS011;6175;50.956;11.064;2023-07-31T12:37:12;3.42;;;2.50;;
12224;SDS011;6175;50.956;11.064;2023-07-31T12:39:40;3.03;;;2.25;;
12224;SDS011;6175;50.956;11.064;2023-07-31T12:42:07;3.33;;;2.38;;
12224;SDS011;6175;50.956;11.064;2023-07-31T12:44:34;5.13;;;2.22;;
12224;SDS011;6175;50.956;11.064;2023-07-31T12:47:03;3.20;;;2.42;;
12224;SDS011;6175;50.956;11.064;2023-07-31T12:49:30;3.35;;;2.30;;
12224;SDS011;6175;50.956;11.064;2023-07-31T12:51:57;3.78;;;2.55;;
12224;SDS011;6175;50.956;11.064;2023-07-31T12:54:24;4.45;;;2.42;;
12224;SDS011;6175;50.956;11.064;2023-07-31T12:56:51;2.67;;;2.30;;
12224;SDS011;6175;50.956;11.064;2023-07-31T12:59:18;2.58;;;2.30;;
12224;SDS011;6175;50.956;11.064;2023-07-31T13:01:46;3.83;;;2.63;;
12224;SDS011;6175;50.956;11.064;2023-07-31T13:04:15;3.80;;;2.47;;
12224;SDS011;6175;50.956;11.064;2023-07-31T13:06:42;2.85;;;2.25;;
12224;SDS011;6175;50.956;11.064;2023-07-31T13:09:10;3.17;;;2.30;;
12224;SDS011;6175;50.956;11.064;2023-07-31T13:11:37;3.13;;;2.40;;
12224;SDS011;6175;50.956;11.064;2023-07-31T13:14:04;3.45;;;2.42;;
12224;SDS011;6175;50.956;11.064;2023-07-31T13:16:32;5.75;;;2.72;;
12224;SDS011;6175;50.956;11.064;2023-07-31T13:18:59;4.57;;;2.50;;
12224;SDS011;6175;50.956;11.064;2023-07-31T13:21:27;4.03;;;2.60;;
12224;SDS011;6175;50.956;11.064;2023-07-31T13:23:54;3.38;;;2.35;;
12224;SDS011;6175;50.956;11.064;2023-07-31T13:26:23;6.25;;;2.65;;
12224;SDS011;6175;50.956;11.064;2023-07-31T13:28:50;3.20;;;2.35;;
12224;SDS011;6175;50.956;11.064;2023-07-31T13:31:16;2.47;;;2.17;;
12224;SDS011;6175;50.956;11.064;2023-07-31T13:33:44;3.03;;;2.50;;
12224;SDS011;6175;50.956;11.064;2023-07-31T13:36:11;3.17;;;2.58;;
12224;SDS011;6175;50.956;11.064;2023-07-31T13:38:40;3.53;;;2.45;;
12224;SDS011;6175;50.956;11.064;2023-07-31T13:41:07;3.35;;;2.50;;
12224;SDS011;6175;50.956;11.064;2023-07-31T13:43:34;5.95;;;3.20;;
12224;SDS011;6175;50.956;11.064;2023-07-31T13:46:02;2.92;;;2.25;;
12224;SDS011;6175;50.956;11.064;2023-07-31T13:48:31;2.80;;;2.50;;
12224;SDS011;6175;50.956;11.064;2023-07-31T13:50:59;3.72;;;2.50;;
12224;SDS011;6175;50.956;11.064;2023-07-31T13:53:26;3.95;;;2.38;;
12224;SDS011;6175;50.956;11.064;2023-07-31T13:55:54;7.55;;;3.50;;
12224;SDS011;6175;50.956;11.064;2023-07-31T13:58:22;4.65;;;2.90;;
12224;SDS011;6175;50.956;11.064;2023-07-31T14:00:49;4.55;;;2.88;;
12224;SDS011;6175;50.956;11.064;2023-07-31T14:03:16;5.05;;;3.20;;
12224;SDS011;6175;50.956;11.064;2023-07-31T14:05:43;4.35;;;3.05;;
12224;SDS011;6175;50.956;11.064;2023-07-31T14:08:10;4.55;;;2.80;;
12224;SDS011;6175;50.956;11.064;2023-07-31T14:10:37;6.28;;;3.03;;
12224;SDS011;6175;50.956;11.064;2023-07-31T14:13:06;5.22;;;2.83;;
12224;SDS011;6175;50.956;11.064;2023-07-31T14:15:33;4.68;;;2.80;;
12224;SDS011;6175;50.956;11.064;2023-07-31T14:18:01;4.82;;;2.90;;
12224;SDS011;6175;50.956;11.064;2023-07-31T14:20:28;7.22;;;3.05;;
12224;SDS011;6175;50.956;11.064;2023-07-31T14:22:56;4.57;;;3.10;;
12224;SDS011;6175;50.956;11.064;2023-07-31T14:25:24;5.88;;;2.95;;
12224;SDS011;6175;50.956;11.064;2023-07-31T14:27:51;5.80;;;3.20;;
12224;SDS011;6175;50.956;11.064;2023-07-31T14:30:19;5.68;;;3.22;;
12224;SDS011;6175;50.956;11.064;2023-07-31T14:32:46;5.13;;;3.25;;
12224;SDS011;6175;50.956;11.064;2023-07-31T14:35:14;4.57;;;3.13;;
12224;SDS011;6175;50.956;11.064;2023-07-31T14:37:42;5.38;;;3.17;;
12224;SDS011;6175;50.956;11.064;2023-07-31T14:40:10;4.80;;;2.90;;
12224;SDS011;6175;50.956;11.064;2023-07-31T14:42:37;5.05;;;3.22;;
12224;SDS011;6175;50.956;11.064;2023-07-31T14:45:05;4.18;;;3.00;;
12224;SDS011;6175;50.956;11.064;2023-07-31T14:47:35;5.28;;;3.33;;
12224;SDS011;6175;50.956;11.064;2023-07-31T14:50:02;4.03;;;2.90;;
12224;SDS011;6175;50.956;11.064;2023-07-31T14:52:30;5.90;;;2.72;;